createdAt,value
2018-06-08T00:00:54.661Z,30.05
2018-06-08T00:01:58.985Z,30.68
2018-06-08T00:03:03.369Z,30.65
2018-06-08T00:04:07.789Z,28.80
2018-06-08T00:05:12.119Z,30.82
2018-06-08T00:06:16.580Z,31.12
2018-06-08T00:07:20.840Z,31.60
2018-06-08T00:08:25.059Z,31.77
2018-06-08T00:09:29.821Z,30.45
2018-06-08T00:10:34.415Z,30.62
2018-06-08T00:11:38.799Z,32.50
2018-06-08T00:12:43.211Z,32.23
2018-06-08T00:13:47.584Z,30.70
2018-06-08T00:14:52.186Z,29.95
2018-06-08T00:15:56.552Z,30.15
2018-06-08T00:17:00.709Z,30.40
2018-06-08T00:18:04.935Z,29.30
2018-06-08T00:19:09.067Z,28.50
2018-06-08T00:20:13.443Z,30.55
2018-06-08T00:21:17.883Z,30.27
2018-06-08T00:22:22.292Z,28.83
2018-06-08T00:23:26.771Z,29.35
2018-06-08T00:24:31.160Z,27.93
2018-06-08T00:25:35.542Z,28.83
2018-06-08T00:26:39.655Z,27.10
2018-06-08T00:27:44.080Z,27.80
2018-06-08T00:28:48.699Z,28.75
2018-06-08T00:29:53.060Z,27.50
2018-06-08T00:30:57.767Z,28.62
2018-06-08T00:32:02.099Z,25.70
2018-06-08T00:33:06.743Z,28.17
2018-06-08T00:34:11.231Z,27.55
2018-06-08T00:35:15.356Z,27.77
2018-06-08T00:36:19.442Z,28.12
2018-06-08T00:37:23.919Z,27.10
2018-06-08T00:38:28.387Z,26.73
2018-06-08T00:39:32.585Z,26.30
2018-06-08T00:40:36.908Z,25.02
2018-06-08T00:41:41.382Z,26.05
2018-06-08T00:42:45.481Z,24.67
2018-06-08T00:43:49.815Z,27.20
2018-06-08T00:44:53.970Z,27.70
2018-06-08T00:45:58.088Z,27.85
2018-06-08T00:47:02.935Z,26.12
2018-06-08T00:48:07.112Z,26.12
2018-06-08T00:49:12.004Z,28.50
2018-06-08T00:50:16.416Z,28.20
2018-06-08T00:51:20.743Z,27.00
2018-06-08T00:52:25.234Z,28.02
2018-06-08T00:53:29.747Z,28.27
2018-06-08T00:54:34.610Z,28.40
2018-06-08T00:55:39.178Z,28.45
2018-06-08T00:56:54.653Z,29.32
2018-06-08T00:57:58.963Z,30.55
2018-06-08T00:59:03.303Z,27.42
2018-06-08T01:00:07.673Z,27.62
2018-06-08T01:01:12.061Z,29.90
2018-06-08T01:02:16.461Z,28.05
2018-06-08T01:03:21.002Z,28.12
2018-06-08T01:04:25.597Z,29.42
2018-06-08T01:05:30.035Z,30.05
2018-06-08T01:06:34.509Z,28.23
2018-06-08T01:07:38.992Z,28.35
2018-06-08T01:08:43.698Z,30.20
2018-06-08T01:09:48.117Z,28.05
2018-06-08T01:10:52.636Z,29.12
2018-06-08T01:11:57.092Z,29.92
2018-06-08T01:13:01.648Z,32.55
2018-06-08T01:14:06.116Z,31.52
2018-06-08T01:15:11.059Z,31.93
2018-06-08T01:16:15.400Z,31.45
2018-06-08T01:17:19.750Z,32.20
2018-06-08T01:18:24.168Z,31.23
2018-06-08T01:19:29.072Z,34.65
2018-06-08T01:20:33.428Z,35.05
2018-06-08T01:21:38.178Z,35.38
2018-06-08T01:22:42.773Z,34.00
2018-06-08T01:23:47.132Z,36.40
2018-06-08T01:24:51.566Z,33.55
2018-06-08T01:25:55.874Z,33.83
2018-06-08T01:27:00.536Z,34.73
2018-06-08T01:28:04.870Z,33.98
2018-06-08T01:29:09.107Z,33.02
2018-06-08T01:30:13.217Z,33.78
2018-06-08T01:31:17.425Z,35.10
2018-06-08T01:32:21.618Z,34.55
2018-06-08T01:33:26.088Z,35.55
2018-06-08T01:34:30.204Z,36.88
2018-06-08T01:35:34.314Z,35.65
2018-06-08T01:36:38.762Z,37.17
2018-06-08T01:37:42.908Z,37.00
2018-06-08T01:38:47.328Z,34.98
2018-06-08T01:39:51.414Z,35.92
2018-06-08T01:40:55.462Z,35.55
2018-06-08T01:41:59.543Z,38.98
2018-06-08T01:43:04.089Z,36.33
2018-06-08T01:44:08.303Z,36.50
2018-06-08T01:45:12.378Z,37.30
2018-06-08T01:46:16.500Z,38.73
2018-06-08T01:47:20.847Z,39.18
2018-06-08T01:48:24.971Z,37.73
2018-06-08T01:49:29.337Z,40.08
2018-06-08T01:50:33.381Z,43.20
2018-06-08T01:51:37.464Z,40.83
2018-06-08T01:52:41.936Z,43.85
2018-06-08T01:53:46.009Z,40.85
2018-06-08T01:54:50.080Z,40.85
2018-06-08T01:55:54.212Z,42.80
2018-06-08T01:56:58.315Z,48.10
2018-06-08T01:58:02.382Z,47.40
2018-06-08T01:59:06.478Z,49.85
2018-06-08T02:00:11.240Z,51.65
2018-06-08T02:01:15.548Z,49.85
2018-06-08T02:02:20.158Z,46.08
2018-06-08T02:03:24.503Z,47.80
2018-06-08T02:04:28.865Z,44.93
2018-06-08T02:05:32.995Z,45.83
2018-06-08T02:06:37.685Z,45.80
2018-06-08T02:07:41.763Z,44.90
2018-06-08T02:08:45.799Z,47.60
2018-06-08T02:09:49.869Z,45.45
2018-06-08T02:10:54.116Z,47.95
2018-06-08T02:11:58.188Z,47.13
2018-06-08T02:13:02.237Z,50.15
2018-06-08T02:14:06.607Z,48.38
2018-06-08T02:15:10.687Z,47.78
2018-06-08T02:16:14.824Z,47.13
2018-06-08T02:17:19.196Z,48.80
2018-06-08T02:18:23.279Z,47.00
2018-06-08T02:19:27.509Z,45.12
2018-06-08T02:22:28.329Z,45.08
2018-06-08T02:23:32.495Z,43.80
2018-06-08T02:24:36.735Z,45.10
2018-06-08T02:25:41.106Z,44.42
2018-06-08T02:26:45.197Z,44.65
2018-06-08T02:27:49.306Z,41.95
2018-06-08T02:28:53.676Z,43.38
2018-06-08T02:29:57.742Z,42.13
2018-06-08T02:31:01.867Z,44.20
2018-06-08T02:32:06.023Z,47.48
2018-06-08T02:33:10.057Z,45.35
2018-06-08T02:34:14.132Z,44.83
2018-06-08T02:35:19.056Z,47.00
2018-06-08T02:36:23.143Z,45.43
2018-06-08T02:37:27.363Z,47.20
2018-06-08T02:38:31.459Z,44.93
2018-06-08T02:39:35.560Z,46.58
2018-06-08T02:40:39.723Z,46.60
2018-06-08T02:41:43.880Z,46.58
2018-06-08T02:42:48.220Z,46.90
2018-06-08T02:43:52.555Z,45.25
2018-06-08T02:44:56.832Z,46.40
2018-06-08T02:46:01.148Z,43.95
2018-06-08T02:47:05.553Z,46.58
2018-06-08T02:48:10.247Z,47.98
2018-06-08T02:49:14.864Z,47.45
2018-06-08T02:50:19.296Z,47.55
2018-06-08T02:51:23.877Z,47.35
2018-06-08T02:52:28.524Z,47.23
2018-06-08T02:53:34.373Z,46.53
2018-06-08T02:54:38.996Z,46.55
2018-06-08T02:55:43.315Z,47.15
2018-06-08T02:56:47.774Z,49.15
2018-06-08T02:57:52.279Z,45.90
2018-06-08T02:58:56.704Z,46.95
2018-06-08T03:00:01.193Z,47.78
2018-06-08T03:01:05.550Z,46.63
2018-06-08T03:02:10.056Z,48.90
2018-06-08T03:03:14.539Z,49.18
2018-06-08T03:04:19.242Z,46.68
2018-06-08T03:05:23.707Z,47.10
2018-06-08T03:06:28.089Z,47.15
2018-06-08T03:07:32.185Z,45.10
2018-06-08T03:08:36.323Z,46.50
2018-06-08T03:09:40.686Z,45.92
2018-06-08T03:10:45.143Z,45.33
2018-06-08T03:11:49.561Z,46.48
2018-06-08T03:12:53.879Z,48.60
2018-06-08T03:13:58.235Z,46.25
2018-06-08T03:15:02.577Z,46.37
2018-06-08T03:16:06.985Z,46.18
2018-06-08T03:17:11.363Z,45.52
2018-06-08T03:18:15.763Z,47.03
2018-06-08T03:19:20.587Z,45.43
2018-06-08T03:20:25.096Z,47.45
2018-06-08T03:21:29.193Z,46.05
2018-06-08T03:22:33.349Z,45.43
2018-06-08T03:23:37.596Z,45.50
2018-06-08T03:24:42.069Z,45.60
2018-06-08T03:25:46.216Z,45.75
2018-06-08T03:26:51.089Z,44.67
2018-06-08T03:27:55.262Z,47.17
2018-06-08T03:28:59.404Z,48.30
2018-06-08T03:30:03.619Z,46.88
2018-06-08T03:31:07.707Z,44.40
2018-06-08T03:32:11.900Z,46.92
2018-06-08T03:33:15.969Z,45.75
2018-06-08T03:34:20.467Z,45.55
2018-06-08T03:35:26.126Z,46.90
2018-06-08T03:36:30.576Z,45.78
2018-06-08T03:37:34.928Z,47.08
2018-06-08T03:38:39.275Z,47.38
2018-06-08T03:39:43.618Z,44.40
2018-06-08T03:40:48.013Z,46.40
2018-06-08T03:41:52.370Z,46.13
2018-06-08T03:42:56.751Z,46.15
2018-06-08T03:44:00.891Z,46.40
2018-06-08T03:45:05.326Z,45.10
2018-06-08T03:46:09.460Z,45.45
2018-06-08T03:47:13.631Z,45.78
2018-06-08T03:48:17.887Z,46.20
2018-06-08T03:49:22.272Z,48.52
2018-06-08T03:50:26.367Z,45.63
2018-06-08T03:51:30.536Z,45.80
2018-06-08T03:52:35.208Z,44.98
2018-06-08T03:53:39.568Z,46.95
2018-06-08T03:54:43.967Z,46.42
2018-06-08T03:55:48.276Z,43.98
2018-06-08T03:56:52.660Z,47.03
2018-06-08T03:57:57.001Z,46.53
2018-06-08T03:59:01.443Z,46.80
2018-06-08T04:00:06.095Z,45.20
2018-06-08T04:01:10.435Z,47.27
2018-06-08T04:02:14.536Z,45.92
2018-06-08T04:03:18.663Z,47.95
2018-06-08T04:04:22.819Z,44.20
2018-06-08T04:05:26.982Z,48.68
2018-06-08T04:06:31.065Z,48.40
2018-06-08T04:07:35.180Z,47.50
2018-06-08T04:08:39.317Z,46.70
2018-06-08T04:09:43.407Z,48.13
2018-06-08T04:10:47.505Z,47.45
2018-06-08T04:11:51.591Z,45.63
2018-06-08T04:12:55.799Z,46.10
2018-06-08T04:13:59.945Z,47.53
2018-06-08T04:15:04.082Z,45.75
2018-06-08T04:16:08.477Z,47.83
2018-06-08T04:17:12.737Z,44.35
2018-06-08T04:18:16.863Z,46.63
2018-06-08T04:19:20.990Z,48.38
2018-06-08T04:20:25.365Z,47.38
2018-06-08T04:21:31.137Z,48.23
2018-06-08T04:22:35.716Z,45.92
2018-06-08T04:23:40.003Z,43.70
2018-06-08T04:24:44.369Z,42.93
2018-06-08T04:25:48.722Z,44.95
2018-06-08T04:26:53.090Z,42.88
2018-06-08T04:27:57.504Z,43.83
2018-06-08T04:29:01.874Z,41.65
2018-06-08T04:30:06.266Z,44.10
2018-06-08T04:31:10.780Z,41.28
2018-06-08T04:32:14.900Z,42.43
2018-06-08T04:33:19.131Z,42.65
2018-06-08T04:34:23.367Z,41.45
2018-06-08T04:35:27.526Z,40.92
2018-06-08T04:36:31.674Z,40.63
2018-06-08T04:37:35.806Z,39.63
2018-06-08T04:38:40.040Z,40.23
2018-06-08T04:39:44.171Z,39.88
2018-06-08T04:40:48.337Z,40.43
2018-06-08T04:41:52.471Z,41.20
2018-06-08T04:42:56.562Z,39.48
2018-06-08T04:44:00.705Z,39.27
2018-06-08T04:45:05.010Z,38.00
2018-06-08T04:46:09.264Z,41.02
2018-06-08T04:47:13.529Z,41.37
2018-06-08T04:48:17.637Z,40.43
2018-06-08T04:49:21.895Z,38.83
2018-06-08T04:50:26.007Z,40.95
2018-06-08T04:51:30.443Z,43.42
2018-06-08T04:52:34.792Z,42.60
2018-06-08T04:53:39.220Z,41.65
2018-06-08T04:54:43.867Z,41.60
2018-06-08T04:55:48.338Z,39.42
2018-06-08T04:56:53.033Z,42.05
2018-06-08T04:57:57.412Z,41.15
2018-06-08T04:59:01.769Z,40.75
2018-06-08T05:00:06.329Z,41.18
2018-06-08T05:01:10.669Z,41.92
2018-06-08T05:02:15.069Z,41.25
2018-06-08T05:03:19.493Z,41.10
2018-06-08T05:04:23.820Z,44.77
2018-06-08T05:05:28.200Z,43.78
2018-06-08T05:06:32.660Z,44.18
2018-06-08T05:07:37.046Z,44.08
2018-06-08T05:08:41.363Z,43.70
2018-06-08T05:09:45.874Z,44.18
2018-06-08T05:10:50.263Z,43.45
2018-06-08T05:11:54.587Z,42.17
2018-06-08T05:12:58.939Z,44.53
2018-06-08T05:14:03.419Z,44.48
2018-06-08T05:15:20.000Z,41.80
2018-06-08T05:16:24.388Z,46.80
2018-06-08T05:17:28.831Z,44.88
2018-06-08T05:18:33.207Z,43.75
2018-06-08T05:19:37.547Z,45.30
2018-06-08T05:20:42.165Z,45.48
2018-06-08T05:21:46.266Z,49.08
2018-06-08T05:22:50.036Z,47.05
2018-06-08T05:23:54.184Z,48.38
2018-06-08T05:24:58.398Z,54.65
2018-06-08T05:26:02.823Z,50.58
2018-06-08T05:27:06.978Z,50.48
2018-06-08T05:28:11.153Z,52.62
2018-06-08T05:29:15.562Z,50.63
2018-06-08T05:30:22.260Z,49.83
2018-06-08T05:31:26.671Z,49.58
2018-06-08T05:32:31.472Z,49.23
2018-06-08T05:33:35.881Z,46.77
2018-06-08T05:34:40.563Z,48.13
2018-06-08T05:35:44.958Z,49.98
2018-06-08T05:36:49.785Z,48.42
2018-06-08T05:37:54.184Z,45.55
2018-06-08T05:38:59.233Z,48.85
2018-06-08T05:40:03.642Z,48.52
2018-06-08T05:41:07.991Z,52.90
2018-06-08T05:42:12.381Z,57.17
2018-06-08T05:43:16.714Z,53.02
2018-06-08T05:44:21.501Z,52.50
2018-06-08T05:45:25.948Z,49.38
2018-06-08T05:46:30.372Z,53.38
2018-06-08T05:47:34.740Z,52.48
2018-06-08T05:48:39.075Z,51.50
2018-06-08T05:49:43.467Z,52.27
2018-06-08T05:50:47.984Z,52.80
2018-06-08T05:51:52.963Z,53.10
2018-06-08T05:52:57.308Z,51.77
2018-06-08T05:54:05.412Z,53.38
2018-06-08T05:55:09.759Z,48.10
2018-06-08T05:56:14.750Z,52.83
2018-06-08T05:57:19.672Z,50.45
2018-06-08T05:58:25.392Z,49.42
2018-06-08T05:59:29.819Z,47.75
2018-06-08T06:00:33.912Z,49.50
2018-06-08T06:01:38.497Z,46.75
2018-06-08T06:02:42.785Z,48.45
2018-06-08T06:03:47.315Z,46.88
2018-06-08T06:04:51.447Z,47.30
2018-06-08T06:05:58.439Z,45.65
2018-06-08T06:07:02.597Z,45.15
2018-06-08T06:08:07.009Z,44.53
2018-06-08T06:09:11.458Z,47.03
2018-06-08T06:10:16.080Z,45.23
2018-06-08T06:11:20.456Z,44.73
2018-06-08T06:12:24.791Z,46.13
2018-06-08T06:13:29.094Z,47.08
2018-06-08T06:14:33.800Z,45.55
2018-06-08T06:15:38.353Z,44.67
2018-06-08T06:16:42.781Z,47.13
2018-06-08T06:17:47.177Z,43.68
2018-06-08T06:18:51.525Z,44.65
2018-06-08T06:19:56.405Z,44.13
2018-06-08T06:21:26.684Z,43.38
2018-06-08T06:22:31.058Z,43.85
2018-06-08T06:23:35.456Z,42.10
2018-06-08T06:24:40.224Z,43.10
2018-06-08T06:25:44.979Z,43.98
2018-06-08T06:26:49.371Z,44.45
2018-06-08T06:30:00.050Z,42.60
2018-06-08T06:31:04.300Z,44.75
2018-06-08T06:32:08.739Z,43.15
2018-06-08T06:33:12.972Z,44.70
2018-06-08T06:34:17.154Z,44.08
2018-06-08T06:35:21.360Z,45.92
2018-06-08T06:36:25.491Z,42.88
2018-06-08T06:37:29.598Z,47.83
2018-06-08T06:38:34.184Z,44.55
2018-06-08T06:39:41.037Z,44.20
2018-06-08T06:40:45.520Z,48.00
2018-06-08T06:41:49.589Z,44.88
2018-06-08T06:42:53.749Z,42.73
2018-06-08T06:43:58.194Z,45.05
2018-06-08T06:45:02.352Z,46.13
2018-06-08T06:46:06.815Z,44.90
2018-06-08T06:47:11.270Z,42.70
2018-06-08T06:48:15.604Z,45.67
2018-06-08T06:49:20.065Z,43.33
2018-06-08T06:50:24.808Z,43.13
2018-06-08T06:51:29.184Z,41.63
2018-06-08T06:52:35.941Z,43.73
2018-06-08T06:53:41.144Z,43.58
2018-06-08T06:54:46.315Z,42.88
2018-06-08T06:55:50.843Z,40.90
2018-06-08T06:56:55.270Z,42.65
2018-06-08T06:57:59.518Z,43.00
2018-06-08T06:59:03.939Z,44.40
2018-06-08T07:00:08.178Z,44.95
2018-06-08T07:01:12.617Z,46.08
2018-06-08T07:02:17.834Z,42.40
2018-06-08T07:03:22.475Z,45.70
2018-06-08T07:04:27.000Z,45.92
2018-06-08T07:05:31.483Z,45.15
2018-06-08T07:06:35.941Z,45.58
2018-06-08T07:07:40.418Z,42.90
2018-06-08T07:08:45.232Z,41.15
2018-06-08T07:09:49.619Z,40.98
2018-06-08T07:10:53.997Z,46.83
2018-06-08T07:11:58.463Z,42.05
2018-06-08T07:13:17.525Z,44.13
2018-06-08T07:14:22.179Z,45.17
2018-06-08T07:15:26.472Z,54.90
2018-06-08T07:16:30.630Z,60.12
2018-06-08T07:17:34.842Z,57.53
2018-06-08T07:18:39.081Z,56.60
2018-06-08T07:19:43.240Z,55.20
2018-06-08T07:20:47.710Z,54.67
2018-06-08T07:21:51.857Z,51.30
2018-06-08T07:22:56.041Z,51.42
2018-06-08T07:24:00.218Z,47.80
2018-06-08T07:25:04.369Z,46.42
2018-06-08T07:26:08.583Z,45.58
2018-06-08T07:27:13.954Z,37.83
2018-06-08T07:28:18.104Z,42.78
2018-06-08T07:29:22.540Z,38.60
2018-06-08T07:30:26.823Z,39.78
2018-06-08T07:31:31.193Z,39.50
2018-06-08T07:32:35.396Z,39.70
2018-06-08T07:33:39.992Z,37.85
2018-06-08T07:34:44.454Z,39.63
2018-06-08T07:35:48.891Z,39.38
2018-06-08T07:36:53.306Z,40.23
2018-06-08T07:37:57.700Z,36.42
2018-06-08T07:39:02.485Z,37.13
2018-06-08T07:40:07.089Z,35.70
2018-06-08T07:41:11.504Z,36.85
2018-06-08T07:42:15.963Z,35.63
2018-06-08T07:43:21.163Z,32.90
2018-06-08T07:44:25.585Z,34.35
2018-06-08T07:45:30.402Z,34.18
2018-06-08T07:46:37.368Z,33.08
2018-06-08T07:47:42.745Z,30.48
2018-06-08T07:48:47.230Z,33.73
2018-06-08T07:49:51.553Z,32.60
2018-06-08T07:50:56.410Z,31.80
2018-06-08T07:52:00.641Z,32.60
2018-06-08T07:53:04.897Z,35.15
2018-06-08T07:54:09.053Z,35.13
2018-06-08T07:55:13.275Z,33.18
2018-06-08T07:56:17.729Z,33.18
2018-06-08T07:57:22.377Z,35.17
2018-06-08T07:58:26.719Z,37.08
2018-06-08T07:59:31.617Z,34.73
2018-06-08T08:00:36.786Z,34.13
2018-06-08T08:01:43.767Z,35.75
2018-06-08T08:02:48.273Z,36.17
2018-06-08T08:03:53.327Z,38.65
2018-06-08T08:04:57.948Z,37.38
2018-06-08T08:06:02.356Z,37.58
2018-06-08T08:07:06.783Z,38.48
2018-06-08T08:08:18.765Z,37.10
2018-06-08T08:09:23.077Z,35.78
2018-06-08T08:10:27.305Z,38.00
2018-06-08T08:11:31.533Z,37.30
2018-06-08T08:12:35.695Z,36.50
2018-06-08T08:13:39.900Z,37.10
2018-06-08T08:14:44.123Z,35.60
2018-06-08T08:15:48.825Z,36.33
2018-06-08T08:16:53.064Z,35.92
2018-06-08T08:17:57.440Z,34.20
2018-06-08T08:19:01.535Z,34.70
2018-06-08T08:20:06.088Z,34.85
2018-06-08T08:21:10.618Z,34.00
2018-06-08T08:22:15.144Z,34.48
2018-06-08T08:23:19.581Z,34.58
2018-06-08T08:24:23.991Z,34.18
2018-06-08T08:25:28.929Z,33.53
2018-06-08T08:26:33.644Z,34.40
2018-06-08T08:27:38.405Z,33.00
2018-06-08T08:28:42.924Z,34.03
2018-06-08T08:29:47.401Z,35.15
2018-06-08T08:30:51.844Z,34.40
2018-06-08T08:32:01.735Z,33.55
2018-06-08T08:33:06.360Z,32.38
2018-06-08T08:34:11.288Z,32.67
2018-06-08T08:35:15.666Z,32.95
2018-06-08T08:36:20.184Z,33.02
2018-06-08T08:37:23.987Z,33.48
2018-06-08T08:38:28.399Z,32.45
2018-06-08T08:39:32.696Z,32.67
2018-06-08T08:40:37.014Z,32.38
2018-06-08T08:41:41.319Z,33.48
2018-06-08T08:42:46.009Z,31.33
2018-06-08T08:43:51.280Z,30.50
2018-06-08T08:45:00.099Z,31.82
2018-06-08T08:46:04.708Z,30.92
2018-06-08T08:47:08.841Z,29.90
2018-06-08T08:48:12.949Z,30.92
2018-06-08T08:49:17.315Z,30.85
2018-06-08T08:50:21.727Z,33.30
2018-06-08T08:51:27.315Z,32.50
2018-06-08T08:52:32.192Z,36.25
2018-06-08T08:53:36.559Z,33.48
2018-06-08T08:54:40.953Z,34.23
2018-06-08T08:55:45.431Z,33.38
2018-06-08T08:56:50.016Z,34.50
2018-06-08T08:57:54.404Z,36.53
2018-06-08T08:58:58.822Z,35.68
2018-06-08T09:00:03.143Z,37.23
2018-06-08T09:01:07.495Z,35.78
2018-06-08T09:02:11.900Z,36.70
2018-06-08T09:03:16.395Z,35.75
2018-06-08T09:04:20.822Z,37.00
2018-06-08T09:05:25.317Z,37.73
2018-06-08T09:06:29.822Z,38.78
2018-06-08T09:07:34.234Z,39.38
2018-06-08T09:08:38.772Z,37.80
2018-06-08T09:09:43.308Z,37.80
2018-06-08T09:10:47.708Z,36.75
2018-06-08T09:11:52.072Z,34.27
2018-06-08T09:12:56.482Z,34.85
2018-06-08T09:14:00.807Z,35.28
2018-06-08T09:15:05.419Z,33.60
2018-06-08T09:16:10.286Z,36.63
2018-06-08T09:17:14.777Z,38.00
2018-06-08T09:18:19.357Z,35.88
2018-06-08T09:19:23.996Z,36.20
2018-06-08T09:20:29.159Z,38.90
2018-06-08T09:21:33.560Z,39.40
2018-06-08T09:22:37.926Z,37.88
2018-06-08T09:23:42.342Z,38.50
2018-06-08T09:24:46.726Z,39.67
2018-06-08T09:25:51.155Z,37.35
2018-06-08T09:26:55.361Z,37.88
2018-06-08T09:27:59.460Z,40.63
2018-06-08T09:29:03.654Z,40.70
2018-06-08T09:30:07.892Z,39.83
2018-06-08T09:31:11.998Z,40.48
2018-06-08T09:32:16.176Z,38.38
2018-06-08T09:33:20.368Z,40.65
2018-06-08T09:34:26.402Z,41.45
2018-06-08T09:35:30.614Z,39.03
2018-06-08T09:36:34.763Z,42.17
2018-06-08T09:37:39.232Z,38.42
2018-06-08T09:38:43.594Z,40.08
2018-06-08T09:39:48.035Z,41.98
2018-06-08T09:40:51.807Z,39.58
2018-06-08T09:41:56.147Z,41.73
2018-06-08T09:43:00.628Z,41.92
2018-06-08T09:44:05.038Z,40.12
2018-06-08T09:45:09.753Z,42.70
2018-06-08T09:46:14.463Z,43.80
2018-06-08T09:47:18.909Z,40.98
2018-06-08T09:48:23.544Z,41.60
2018-06-08T09:49:27.866Z,41.80
2018-06-08T09:50:32.221Z,39.95
2018-06-08T09:51:36.571Z,44.75
2018-06-08T09:52:53.909Z,42.53
2018-06-08T09:53:58.250Z,40.98
2018-06-08T09:55:02.633Z,41.50
2018-06-08T09:56:06.863Z,40.90
2018-06-08T09:57:12.099Z,40.70
2018-06-08T09:58:16.448Z,40.85
2018-06-08T09:59:20.897Z,38.35
2018-06-08T10:00:30.441Z,38.80
2018-06-08T10:01:35.131Z,40.00
2018-06-08T10:02:39.467Z,40.35
2018-06-08T10:03:43.839Z,40.25
2018-06-08T10:04:48.243Z,41.10
2018-06-08T10:05:52.607Z,39.75
2018-06-08T10:06:56.733Z,38.50
2018-06-08T10:08:00.995Z,38.33
2018-06-08T10:09:07.464Z,36.95
2018-06-08T10:10:11.622Z,41.20
2018-06-08T10:11:16.046Z,40.35
2018-06-08T10:12:20.483Z,37.38
2018-06-08T10:13:24.966Z,36.98
2018-06-08T10:14:29.537Z,38.53
2018-06-08T10:15:34.050Z,38.60
2018-06-08T10:16:38.419Z,38.48
2018-06-08T10:17:43.719Z,41.65
2018-06-08T10:18:48.497Z,39.20
2018-06-08T10:19:52.813Z,38.53
2018-06-08T10:20:57.370Z,41.13
2018-06-08T10:22:06.763Z,42.62
2018-06-08T10:23:10.537Z,42.23
2018-06-08T10:24:15.138Z,40.67
2018-06-08T10:25:19.523Z,41.23
2018-06-08T10:26:23.877Z,42.78
2018-06-08T10:27:28.275Z,42.05
2018-06-08T10:28:32.724Z,40.60
2018-06-08T10:29:37.125Z,39.73
2018-06-08T10:30:41.188Z,41.08
2018-06-08T10:31:45.611Z,40.75
2018-06-08T10:32:50.008Z,41.25
2018-06-08T10:33:57.432Z,38.50
2018-06-08T10:35:01.711Z,38.15
2018-06-08T10:36:06.061Z,39.03
2018-06-08T10:37:10.168Z,37.50
2018-06-08T10:38:14.648Z,41.05
2018-06-08T10:39:19.233Z,37.75
2018-06-08T10:40:23.582Z,37.53
2018-06-08T10:41:27.720Z,36.42
2018-06-08T10:42:32.182Z,39.10
2018-06-08T10:43:36.279Z,39.60
2018-06-08T10:44:40.526Z,36.95
2018-06-08T10:45:45.097Z,37.15
2018-06-08T10:46:49.285Z,35.95
2018-06-08T10:47:53.458Z,37.67
2018-06-08T10:48:57.584Z,39.10
2018-06-08T10:50:02.156Z,37.42
2018-06-08T10:51:06.430Z,35.95
2018-06-08T10:52:11.249Z,37.08
2018-06-08T10:53:15.717Z,34.10
2018-06-08T10:54:20.077Z,36.45
2018-06-08T10:55:24.256Z,37.45
2018-06-08T10:56:28.397Z,36.13
2018-06-08T10:57:32.532Z,35.38
2018-06-08T10:58:36.682Z,34.85
2018-06-08T10:59:40.806Z,34.80
2018-06-08T11:00:44.977Z,32.93
2018-06-08T11:01:49.239Z,34.80
2018-06-08T11:02:53.395Z,35.35
2018-06-08T11:03:57.576Z,34.80
2018-06-08T11:05:01.693Z,36.58
2018-06-08T11:06:05.861Z,37.00
2018-06-08T11:07:10.015Z,35.43
2018-06-08T11:08:14.130Z,34.67
2018-06-08T11:09:18.338Z,36.50
2018-06-08T11:10:23.144Z,31.60
2018-06-08T11:11:27.522Z,31.75
2018-06-08T11:12:31.639Z,30.37
2018-06-08T11:13:35.741Z,28.32
2018-06-08T11:14:39.918Z,31.05
2018-06-08T11:15:44.092Z,30.27
2018-06-08T11:16:48.397Z,29.55
2018-06-08T11:17:54.725Z,32.13
2018-06-08T11:18:58.846Z,27.85
2018-06-08T11:20:03.364Z,29.07
2018-06-08T11:21:07.559Z,30.10
2018-06-08T11:22:11.932Z,31.12
2018-06-08T11:23:16.130Z,29.27
2018-06-08T11:24:20.352Z,29.87
2018-06-08T11:25:24.606Z,30.25
2018-06-08T11:26:29.260Z,28.70
2018-06-08T11:27:33.363Z,28.73
2018-06-08T11:28:37.658Z,28.27
2018-06-08T11:29:42.137Z,28.42
2018-06-08T11:30:46.738Z,28.17
2018-06-08T11:31:51.070Z,28.20
2018-06-08T11:32:55.447Z,29.63
2018-06-08T11:33:59.758Z,27.73
2018-06-08T11:35:04.223Z,28.30
2018-06-08T11:36:08.617Z,28.40
2018-06-08T11:37:12.992Z,29.02
2018-06-08T11:38:17.339Z,26.42
2018-06-08T11:39:21.799Z,29.05
2018-06-08T11:40:26.224Z,28.15
2018-06-08T11:41:30.356Z,27.93
2018-06-08T11:42:34.451Z,25.55
2018-06-08T11:43:38.666Z,29.02
2018-06-08T11:44:42.814Z,27.50
2018-06-08T11:45:47.016Z,27.70
2018-06-08T11:46:51.486Z,26.15
2018-06-08T11:47:55.581Z,26.33
2018-06-08T11:48:59.290Z,27.60
2018-06-08T11:50:03.482Z,26.00
2018-06-08T11:51:09.745Z,26.25
2018-06-08T11:52:13.838Z,26.15
2018-06-08T11:53:17.600Z,26.90
2018-06-08T11:54:21.702Z,25.68
2018-06-08T11:55:25.836Z,25.97
2018-06-08T11:56:30.218Z,25.82
2018-06-08T11:57:34.604Z,27.85
2018-06-08T11:58:39.308Z,26.85
2018-06-08T11:59:46.025Z,26.37
2018-06-08T12:00:54.040Z,24.67
2018-06-08T12:01:57.799Z,26.62
2018-06-08T12:03:02.230Z,28.47
2018-06-08T12:04:06.725Z,27.30
2018-06-08T12:05:11.269Z,27.02
2018-06-08T12:06:15.122Z,27.85
2018-06-08T12:07:19.495Z,26.35
2018-06-08T12:08:23.964Z,26.00
2018-06-08T12:09:28.485Z,24.67
2018-06-08T12:10:32.873Z,23.80
2018-06-08T12:11:37.689Z,27.73
2018-06-08T12:12:42.255Z,24.40
2018-06-08T12:13:46.830Z,24.60
2018-06-08T12:15:08.622Z,24.70
2018-06-08T12:16:13.029Z,25.20
2018-06-08T12:17:20.154Z,24.75
2018-06-08T12:18:25.361Z,24.00
2018-06-08T12:19:30.294Z,26.33
2018-06-08T12:20:34.804Z,25.70
2018-06-08T12:21:39.785Z,25.72
2018-06-08T12:22:44.659Z,24.87
2018-06-08T12:23:49.619Z,24.37
2018-06-08T12:24:53.969Z,24.55
2018-06-08T12:25:58.416Z,24.85
2018-06-08T12:27:02.812Z,26.23
2018-06-08T12:28:06.977Z,26.10
2018-06-08T12:29:11.928Z,25.88
2018-06-08T12:30:16.340Z,25.70
2018-06-08T12:31:20.781Z,25.45
2018-06-08T12:32:25.204Z,26.10
2018-06-08T12:33:30.009Z,26.35
2018-06-08T12:34:34.244Z,26.48
2018-06-08T12:35:38.710Z,24.98
2018-06-08T12:36:43.160Z,25.77
2018-06-08T12:37:47.307Z,23.10
2018-06-08T12:38:51.474Z,24.90
2018-06-08T12:39:55.604Z,26.50
2018-06-08T12:40:59.991Z,25.50
2018-06-08T12:42:04.246Z,24.20
2018-06-08T12:43:08.638Z,23.98
2018-06-08T12:44:12.995Z,22.62
2018-06-08T12:45:17.448Z,20.55
2018-06-08T12:46:21.874Z,19.60
2018-06-08T12:47:26.884Z,18.20
2018-06-08T12:48:31.209Z,20.48
2018-06-08T12:49:35.062Z,17.98
2018-06-08T12:50:39.567Z,18.25
2018-06-08T12:51:44.116Z,19.17
2018-06-08T12:52:48.801Z,20.25
2018-06-08T12:53:53.597Z,21.10
2018-06-08T12:54:57.990Z,18.75
2018-06-08T12:56:02.372Z,21.05
2018-06-08T12:57:06.838Z,19.48
2018-06-08T12:58:11.200Z,20.52
2018-06-08T12:59:15.608Z,20.27
2018-06-08T13:00:20.111Z,21.60
2018-06-08T13:01:24.495Z,20.27
2018-06-08T13:02:28.961Z,20.32
2018-06-08T13:03:33.354Z,21.85
2018-06-08T13:04:37.230Z,22.35
2018-06-08T13:05:41.690Z,20.70
2018-06-08T13:06:45.887Z,20.95
2018-06-08T13:07:50.735Z,20.60
2018-06-08T13:08:54.939Z,26.52
2018-06-08T13:09:59.121Z,24.18
2018-06-08T13:11:03.255Z,26.27
2018-06-08T13:12:07.606Z,26.23
2018-06-08T13:13:11.727Z,25.60
2018-06-08T13:14:15.882Z,25.10
2018-06-08T13:15:20.031Z,25.40
2018-06-08T13:16:24.149Z,27.07
2018-06-08T13:17:28.953Z,23.92
2018-06-08T13:18:33.060Z,23.05
2018-06-08T13:19:37.244Z,24.63
2018-06-08T13:20:42.224Z,28.02
2018-06-08T13:21:47.093Z,29.92
2018-06-08T13:22:51.472Z,26.23
2018-06-08T13:23:55.996Z,30.43
2018-06-08T13:25:00.175Z,27.62
2018-06-08T13:26:05.119Z,25.55
2018-06-08T13:27:09.225Z,24.87
2018-06-08T13:28:13.418Z,23.60
2018-06-08T13:29:17.617Z,26.10
2018-06-08T13:30:22.054Z,27.55
2018-06-08T13:31:26.177Z,33.60
2018-06-08T13:32:30.266Z,38.08
2018-06-08T13:33:34.354Z,45.50
2018-06-08T13:34:38.522Z,34.90
2018-06-08T13:35:42.649Z,34.08
2018-06-08T13:36:46.763Z,30.90
2018-06-08T13:37:50.915Z,33.55
2018-06-08T13:38:55.072Z,31.07
2018-06-08T13:39:59.231Z,33.35
2018-06-08T13:41:03.571Z,31.80
2018-06-08T13:42:07.996Z,34.90
2018-06-08T13:43:12.196Z,35.38
2018-06-08T13:44:16.800Z,34.48
2018-06-08T13:45:21.164Z,32.98
2018-06-08T13:46:36.192Z,30.70
2018-06-08T13:47:40.899Z,31.62
2018-06-08T13:48:44.696Z,36.55
2018-06-08T13:49:49.974Z,30.80
2018-06-08T13:50:54.425Z,34.43
2018-06-08T13:51:58.891Z,33.83
2018-06-08T13:53:04.614Z,35.08
2018-06-08T13:54:08.952Z,34.78
2018-06-08T13:55:13.399Z,39.90
2018-06-08T13:56:17.934Z,33.38